Tiempo atmosférico en la estación meteorológica de Areso, Navarra (520 m.)



Fecha
DESCASC
Temp. máxima en grados centígrados (hora)
DESCASC
Temp. mínima en grados centígrados (hora)
DESCASC
Temp. media en grados centígrados
DESCASC
Racha de viento máxima en m/sg (hora)
DESCASC
Velocidad máxima media en intervalos de 10 minutos(hora)
DESCASC
Precipitaciones diarias en mm
DESCASC
Precipitaciones de 00:00 a 06:00 en mm
DESCASC
Precipitaciones de 06:00 a 12:00 en mm
DESCASC
Precipitaciones de 12:00 a 18:00 en mm
DESCASC
Precipitaciones de 18:00 a 24:00 en mm
DESCASC
25-04-2019 15.6 (16:30) 7.6 (05:10) 11.6 13.33 (12:40) 6.94 (12:40) 3.6 3.6 0 0 0
24-04-2019 12.5 (17:00) 6.2 (05:00) 9.3 18.06 (16:30) 8.89 (17:20) 8.2 0 0 0 8.2
23-04-2019 17.5 (13:30) 7.3 (23:20) 12.4 14.17 (02:50) 6.39 (02:40) 2 0 0 0.4 1.6
22-04-2019 18.7 (14:30) 7.3 (00:00) 13 10.83 (23:20) 5 (23:50) 0 0 0 0 0
21-04-2019 14 (13:10) 6.3 (00:00) 10.2 5 (17:50) 1.94 (17:50) 0.2 0 0 0 0.2
20-04-2019 19.1 (15:10) 8.7 (00:00) 13.9 5.83 (17:10) 2.5 (14:10) 0 0 0 0 0
19-04-2019 21 (17:40) 8.9 (00:00) 14.9 7.22 (04:10) 2.78 (04:10) 0 0 0 0 0
18-04-2019 16.5 (14:40) 9.9 (00:00) 13.2 15.83 (04:40) 9.17 (03:20) 0.2 0 0 0.2 0
17-04-2019 18.8 (17:00) 11.2 (00:00) 15 19.17 (13:20) 11.67 (17:10) 0 0 0 0 0
16-04-2019 18.8 (17:50) 6.3 (00:00) 12.5 10.56 (23:50) 6.39 (23:59) 1.2 1.2 0 0 0
15-04-2019 21.1 (17:30) 9.3 (00:00) 15.2 14.72 (10:20) 10.28 (14:00) 22.4 0 0 0 22.4
14-04-2019 17.6 (15:10) 6.9 (00:00) 12.3 5.56 (12:10) 2.78 (12:10) 0 0 0 0 0
13-04-2019 20 (16:20) 0.7 (00:00) 10.3 5 (16:30) 2.5 (16:30) 0 0 0 0 0
12-04-2019 12.9 (17:00) 3.8 (00:00) 8.3 6.67 (13:30) 2.5 (14:50) 1 1 0 0 0
11-04-2019 8.6 (15:50) 5.5 (00:00) 7.1 5.83 (03:20) 2.5 (11:50) 28.6 10.4 10.2 5.6 2.4
10-04-2019 10.5 (16:40) 4.4 (00:00) 7.5 5 (15:10) 2.22 (12:20) 21.6 0 8.4 0.6 12.6
09-04-2019 15.1 (16:10) 3.3 (00:00) 9.2 8.06 (12:10) 3.89 (12:20) 5 0 0 0 5
08-04-2019 10.9 (16:50) 4.4 (00:00) 7.6 10.28 (02:50) 5.28 (02:40) 5.4 0 1.8 3.6 0
07-04-2019 12.6 (19:10) 4 (00:00) 8.3 5.83 (10:30) 2.78 (23:30) 0.4 0.2 0.2 0 0
06-04-2019 11.7 (16:30) 3.1 (00:00) 7.4 11.11 (13:40) 5.83 (14:00) 7.6 6.8 0 0.2 0.6
05-04-2019 10.3 (16:20) 4.3 (00:00) 7.3 13.33 (10:20) 7.78 (10:10) 3.8 0 0 2.2 1.6
04-04-2019 12.1 (17:00) 0.4 (00:00) 6.3 8.06 (19:00) 5 (19:00) 6.4 2.6 3.8 0 0
03-04-2019 7.3 (13:50) 0.6 (00:00) 4 9.72 (13:30) 3.61 (13:20) 13.8 4.4 3.8 3.8 1.8
02-04-2019 13.4 (14:00) 7.1 (00:00) 10.2 5.28 (16:20) 2.5 (13:00) 2.6 0 0 0 2.6
01-04-2019 13.8 (17:00) 7.3 (00:00) 10.6 8.33 (14:40) 4.72 (14:50) 1.8 1.4 0.4 0 0
31-03-2019 17.4 (13:50) 9.8 (00:00) 13.6 8.61 (04:40) 3.89 (04:30) 0 0 0 0 0
30-03-2019 18.1 (16:10) 9.3 (00:00) 13.7 14.44 (06:10) 8.06 (10:50) 0 0 0 0 0
29-03-2019 18 (16:00) 1.7 (00:00) 9.9 16.11 (11:10) 7.78 (11:00) 0 0 0 0 0
28-03-2019 14 (14:30) 3 (00:00) 8.5 6.39 (11:50) 2.78 (12:40) 0 0 0 0 0
27-03-2019 13 (15:00) -0.1 (00:00) 6.4 6.39 (14:10) 2.78 (13:10) 0 0 0 0 0

Gráficas

Temp. máximas Temp. mínimas Temp. medias Precipitaciones Rachas de viento máximas Velocidades máximas media en intervalos de 10 minutos

Datos horarios

Fecha y hora oficial Temperatura (ºC) Velocidad del viento (km/h) Dirección del viento Racha (km/h) Dirección de racha Precipitación (mm) Presión (hPa) Tendencia (hPa) Humedad (%)
2019-04-25 23:00:00 10.2 11 Oeste 44 Noroeste 0 -- -- 57
2019-04-25 22:00:00 11.7 19 Oeste 45 Oeste 0 -- -- 50
2019-04-25 21:00:00 11.8 15 Sudoeste 47 Sudoeste 0 -- -- 48
2019-04-25 20:00:00 12.6 20 Oeste 44 Oeste 0 -- -- 46
2019-04-25 19:00:00 13.3 16 Oeste 36 Sudoeste 0 -- -- 43
2019-04-25 18:00:00 13.4 8 Oeste 37 Oeste 0 -- -- 45
2019-04-25 17:00:00 14.3 14 Oeste 35 Sudoeste 0 -- -- 38
2019-04-25 16:00:00 14.7 13 Sudoeste 40 Sudoeste 0 -- -- 36
2019-04-25 15:00:00 14 17 Oeste 42 Sudoeste 0 -- -- 46
2019-04-25 14:00:00 13.3 13 Sudoeste 44 Noroeste 0 -- -- 42
2019-04-25 13:00:00 13 17 Oeste 48 Oeste 0 -- -- 49
2019-04-25 12:00:00 11.3 12 Sudoeste 30 Sudoeste 0 -- -- 55
2019-04-25 11:00:00 10.5 13 Sudoeste 34 Sur 0 -- -- 57
2019-04-25 10:00:00 9.9 19 Sudoeste 41 Sur 0 -- -- 60
2019-04-25 09:00:00 9.1 13 Sudoeste 31 Sudoeste 0 -- -- 62
2019-04-25 08:00:00 8.7 16 Sudoeste 48 Oeste 0 -- -- 64
2019-04-25 07:00:00 7.9 13 Sudoeste 34 Oeste 0 -- -- 70
2019-04-25 06:00:00 8 8 Sudoeste 36 Oeste 0.2 -- -- 78
2019-04-25 05:00:00 8 2 Noroeste 28 Oeste 0.2 -- -- 91
2019-04-25 04:00:00 9.2 11 Noroeste 26 Noroeste 1.6 -- -- 91
2019-04-25 03:00:00 9.3 4 Oeste 11 Sudoeste 0.8 -- -- 94
2019-04-25 02:00:00 9.7 3 Oeste 18 Sudoeste 0.8 -- -- 90
2019-04-25 01:00:00 10.1 5 Sur 30 Sur 0 -- -- 82
2019-04-25 00:00:00 10.6 11 Sudoeste 27 Sudoeste 0 -- -- 75
2019-04-24 23:00:00 8.6 3 Sur 24 Sur 0 -- -- 96
2019-04-24 22:00:00 9.2 5 Sudoeste 19 Sudeste 2.2 -- -- 90
2019-04-24 21:00:00 9.5 8 Oeste 35 Oeste 5.2 -- -- 88
2019-04-24 20:00:00 10.6 11 Sudoeste 53 Sur 0.8 -- -- 84
2019-04-24 19:00:00 10.6 14 Sudoeste 49 Sudoeste 0 -- -- 76
2019-04-24 18:00:00 11.6 30 Sur 63 Sudoeste 0 -- -- 68
2019-04-24 17:00:00 12.5 24 Sur 65 Sudoeste 0 -- -- 64
2019-04-24 16:00:00 10.6 21 Sur 52 Sur 0 -- -- 68
2019-04-24 15:00:00 11.1 24 Sur 59 Sudoeste 0 -- -- 68
2019-04-24 14:00:00 9.5 18 Sur 50 Sudoeste 0 -- -- 71
2019-04-24 13:00:00 9.1 19 Sudeste 57 Sur 0 -- -- 67
2019-04-24 12:00:00 8.5 15 Sudeste 42 Sur 0 -- -- 67
2019-04-24 11:00:00 8.7 19 Sur 44 Sudoeste 0 -- -- 65
2019-04-24 10:00:00 8.9 10 Sudeste 36 Sur 0 -- -- 72
2019-04-24 09:00:00 8.1 15 Sur 35 Sudeste 0 -- -- 70
2019-04-24 08:00:00 7.6 11 Sudoeste 30 Sudoeste 0 -- -- 65
2019-04-24 07:00:00 7.6 14 Sudoeste 29 Oeste 0 -- -- 65
2019-04-24 06:00:00 7.2 12 Sudoeste 25 Sudoeste 0 -- -- 70
2019-04-24 05:00:00 6.2 0 Calma 6 Sudeste 0 -- -- 97
2019-04-24 04:00:00 6.7 0 Calma 2 Noroeste 0 -- -- 98
2019-04-24 03:00:00 6.9 0 Calma 2 Sudoeste 0 -- -- 96
2019-04-24 02:00:00 7 0 Calma 5 Nordeste 0 -- -- 95
2019-04-24 01:00:00 7.6 0 Calma 10 Norte 0 -- -- 93
2019-04-24 00:00:00 7.6 0 Calma 5 Sudoeste 0 -- -- 90
2019-04-23 23:00:00 7.5 0 Calma 8 Sudoeste 0 -- -- 93
2019-04-23 22:00:00 7.9 3 Nordeste 8 Noroeste 0 -- -- 93
2019-04-23 21:00:00 8.9 0 Calma 32 Oeste 1 -- -- 84
2019-04-23 20:00:00 10.7 10 Oeste 20 Oeste 0.6 -- -- 76
2019-04-23 19:00:00 12.2 6 Noroeste 16 Noroeste 0 -- -- 75
2019-04-23 18:00:00 12.6 5 Este 17 Noroeste 0 -- -- 77
2019-04-23 17:00:00 12.9 4 Sudoeste 24 Sudoeste 0.4 -- -- 82
2019-04-23 16:00:00 15.1 13 Sur 32 Sudoeste 0 -- -- 66
2019-04-23 15:00:00 15.8 12 Sudoeste 36 Sudoeste 0 -- -- 59
2019-04-23 14:00:00 16.5 11 Sur 34 Sudoeste 0 -- -- 54
2019-04-23 13:00:00 15.9 9 Sur 34 Sudoeste 0 -- -- 61
2019-04-23 12:00:00 14.3 9 Sudeste 36 Sur 0 -- -- 67
2019-04-23 11:00:00 14 22 Sur 41 Sudoeste 0 -- -- 66
2019-04-23 10:00:00 13.5 16 Sudoeste 41 Sudoeste 0 -- -- 70
2019-04-23 09:00:00 12.6 18 Sur 43 Sur 0 -- -- 70
2019-04-23 08:00:00 12.1 19 Sudoeste 37 Sur 0 -- -- 72
2019-04-23 07:00:00 12.3 16 Sudoeste 37 Sur 0 -- -- 70
2019-04-23 06:00:00 12.2 10 Sudoeste 33 Sudoeste 0 -- -- 70
2019-04-23 05:00:00 12.4 14 Sur 41 Sudoeste 0 -- -- 69
2019-04-23 04:00:00 12.8 18 Sur 39 Sudoeste 0 -- -- 66
2019-04-23 03:00:00 13 18 Sur 51 Sudeste 0 -- -- 64
2019-04-23 02:00:00 13 14 Sur 39 Sur 0 -- -- 64
2019-04-23 01:00:00 13.6 18 Sur 43 Sur 0 -- -- 60
2019-04-23 00:00:00 14.1 16 Sudoeste 39 Sur 0 -- -- 58
2019-04-22 23:00:00 14.8 8 Sur 31 Sudeste 0 -- -- 54
2019-04-22 22:00:00 15.2 8 Sur 27 Sur 0 -- -- 53
2019-04-22 21:00:00 15.6 4 Sudeste 23 Sur 0 -- -- 54
2019-04-22 20:00:00 16.6 9 Sur 34 Sudoeste 0 -- -- 49
2019-04-22 19:00:00 17.3 17 Sur 31 Sudoeste 0 -- -- 46
2019-04-22 18:00:00 18.4 13 Sur 30 Sur 0 -- -- 44
2019-04-22 17:00:00 17.9 17 Sur 30 Sur 0 -- -- 44
2019-04-22 16:00:00 18.7 9 Sur 29 Oeste 0 -- -- 42
2019-04-22 15:00:00 18.4 12 Sur 27 Sudoeste 0 -- -- 42
2019-04-22 14:00:00 17.9 9 Oeste 21 Sur 0 -- -- 42
2019-04-22 13:00:00 17.6 5 Noroeste 17 Sur 0 -- -- 49
2019-04-22 12:00:00 16.8 3 Sudeste 8 Oeste 0 -- -- 56
2019-04-22 11:00:00 13.6 2 Sudoeste 6 Sur 0 -- -- 74
2019-04-22 10:00:00 10.8 3 Sudoeste 4 Sur 0 -- -- 93
2019-04-22 09:00:00 8.2 0 Calma 0 Calma 0 -- -- 100
2019-04-22 08:00:00 7.5 0 Calma -- -- 0 -- -- 100
2019-04-22 07:00:00 7.6 0 Calma -- -- 0 -- -- 100
2019-04-22 06:00:00 7.5 0 Calma -- -- 0 -- -- 100
2019-04-22 05:00:00 7.9 0 Calma -- -- 0 -- -- 99
2019-04-22 04:00:00 8.3 0 Calma -- -- 0 -- -- 99
2019-04-22 03:00:00 8.5 0 Calma -- -- 0 -- -- 99
2019-04-22 02:00:00 8.7 0 Calma -- -- 0 -- -- 98
2019-04-22 01:00:00 8.8 0 Calma -- -- 0 -- -- 97
2019-04-22 00:00:00 9 0 Calma -- -- 0 -- -- 97
2019-04-21 23:00:00 9.3 0 Calma -- -- 0 -- -- 96
2019-04-21 22:00:00 9.6 0 Calma 4 Norte 0 -- -- 94
2019-04-21 21:00:00 10.6 0 Calma 6 Noroeste 0 -- -- 89
2019-04-21 20:00:00 11 0 Calma 4 Sur 0 -- -- 93
2019-04-21 19:00:00 11 0 Calma 9 Nordeste 0.2 -- -- 88
2019-04-21 18:00:00 12.1 5 Nordeste 18 Nordeste 0 -- -- 79
2019-04-21 17:00:00 13.3 0 Calma 10 Noroeste 0 -- -- 73
2019-04-21 16:00:00 13.8 3 Norte 7 Este 0 -- -- 73
2019-04-21 15:00:00 13 2 Nordeste 12 Norte 0 -- -- 74
2019-04-21 14:00:00 13.9 5 Nordeste 11 Nordeste 0 -- -- 70
2019-04-21 13:00:00 13.9 3 Sudoeste 10 Nordeste 0 -- -- 64
2019-04-21 12:00:00 12.1 2 Nordeste 10 Este 0 -- -- 76
2019-04-21 11:00:00 10.4 0 Calma 5 Sudoeste 0 -- -- 80
2019-04-21 10:00:00 10.1 0 Calma 4 Sur 0 -- -- 89
2019-04-21 09:00:00 7.6 0 Calma 3 Noroeste 0 -- -- 94
2019-04-21 08:00:00 7 0 Calma 4 Noroeste 0 -- -- 94
2019-04-21 07:00:00 6.6 0 Calma 2 Nordeste 0 -- -- 94
2019-04-21 06:00:00 6.4 0 Calma 4 Oeste 0 -- -- 94
2019-04-21 05:00:00 7.1 0 Calma 2 Oeste 0 -- -- 93
2019-04-21 04:00:00 7.3 0 Calma 4 Noroeste 0 -- -- 94
2019-04-21 03:00:00 7.8 0 Calma 4 Nordeste 0 -- -- 93
2019-04-21 02:00:00 7.5 0 Calma 3 Oeste 0 -- -- 93
2019-04-21 01:00:00 8 0 Calma 4 Noroeste 0 -- -- 89
2019-04-21 00:00:00 8.9 0 Calma 2 Sudoeste 0 -- -- 87
2019-04-20 23:00:00 10.1 0 Calma 3 Nordeste 0 -- -- 84
2019-04-20 22:00:00 11.5 0 Calma 8 Nordeste 0 -- -- 77
2019-04-20 21:00:00 12.9 0 Calma 11 Nordeste 0 -- -- 75
2019-04-20 20:00:00 15.2 4 Nordeste 11 Nordeste 0 -- -- 67
2019-04-20 19:00:00 17.5 5 Este 18 Nordeste 0 -- -- 59
2019-04-20 18:00:00 18.2 4 Este 21 Nordeste 0 -- -- 58
2019-04-20 17:00:00 18.6 5 Nordeste 18 Nordeste 0 -- -- 59
2019-04-20 16:00:00 19.1 7 Nordeste 21 Oeste 0 -- -- 60
2019-04-20 15:00:00 18.7 8 Nordeste 18 Nordeste 0 -- -- 59
2019-04-20 14:00:00 18.3 7 Este 18 Oeste 0 -- -- 62
2019-04-20 13:00:00 17.2 4 Noroeste 15 Este 0 -- -- 57
2019-04-20 12:00:00 16.7 4 Nordeste 18 Este 0 -- -- 56
2019-04-20 11:00:00 14.8 7 Este 17 Nordeste 0 -- -- 64
2019-04-20 10:00:00 12.9 6 Este 14 Nordeste 0 -- -- 76
2019-04-20 09:00:00 9.6 0 Calma 2 Noroeste 0 -- -- 99
2019-04-20 08:00:00 8.9 0 Calma 4 Noroeste 0 -- -- 100
2019-04-20 07:00:00 9.1 0 Calma 2 Noroeste 0 -- -- 99
2019-04-20 06:00:00 9.2 0 Calma 2 Este 0 -- -- 98
2019-04-20 05:00:00 9.6 0 Calma -- -- 0 -- -- 97
2019-04-20 04:00:00 9.9 0 Calma 0 Calma 0 -- -- 95
2019-04-20 03:00:00 10.7 0 Calma 3 Nordeste 0 -- -- 92
2019-04-20 02:00:00 11.1 0 Calma 2 Oeste 0 -- -- 89
2019-04-20 01:00:00 11.8 0 Calma 9 Nordeste 0 -- -- 84
2019-04-20 00:00:00 12.8 2 Noroeste 7 Este 0 -- -- 82
2019-04-19 23:00:00 13.2 0 Calma 5 Nordeste 0 -- -- 84
2019-04-19 22:00:00 14.6 0 Calma 8 Nordeste 0 -- -- 78
2019-04-19 21:00:00 15.7 3 Norte 10 Nordeste 0 -- -- 73
2019-04-19 20:00:00 17.3 4 Nordeste 14 Este 0 -- -- 64
2019-04-19 19:00:00 18.9 4 Este 16 Este 0 -- -- 58
2019-04-19 18:00:00 20.1 5 Este 11 Sudeste 0 -- -- 51
2019-04-19 17:00:00 20.3 4 Este 13 Este 0 -- -- 50
2019-04-19 16:00:00 20 3 Sudeste 10 Sudeste 0 -- -- 57
2019-04-19 15:00:00 18 4 Este 9 Este 0 -- -- 57
2019-04-19 14:00:00 17.5 3 Este 11 Este 0 -- -- 57
2019-04-19 13:00:00 17.6 4 Sudeste 9 Sudeste 0 -- -- 54
2019-04-19 12:00:00 15.9 3 Sur 6 Sur 0 -- -- 62
2019-04-19 11:00:00 13.3 0 Calma 8 Noroeste 0 -- -- 71
2019-04-19 10:00:00 11.5 0 Calma 4 Norte 0 -- -- 75
2019-04-19 09:00:00 9.8 0 Calma 4 Norte 0 -- -- 82
2019-04-19 08:00:00 9.5 0 Calma 6 Norte 0 -- -- 79
2019-04-19 07:00:00 10 0 Calma 8 Oeste 0 -- -- 77
2019-04-19 06:00:00 10.8 2 Sudoeste 12 Oeste 0 -- -- 70
2019-04-19 05:00:00 12 8 Sudoeste 26 Sur 0 -- -- 63
2019-04-19 04:00:00 12.1 10 Sudoeste 22 Sudoeste 0 -- -- 64
2019-04-19 03:00:00 10.3 3 Oeste 13 Oeste 0 -- -- 89
2019-04-19 02:00:00 9 0 Calma 3 Norte 0 -- -- 95
2019-04-19 01:00:00 9.2 0 Calma 4 Sudoeste 0 -- -- 93
2019-04-19 00:00:00 9.9 0 Calma 3 Norte 0 -- -- 89
2019-04-18 23:00:00 11 0 Calma 5 Sur 0 -- -- 87
2019-04-18 22:00:00 11.7 0 Calma 6 Nordeste 0 -- -- 85
2019-04-18 21:00:00 12.2 0 Calma 13 Nordeste 0 -- -- 84
2019-04-18 20:00:00 12.7 4 Norte 13 Este 0 -- -- 82
2019-04-18 19:00:00 13 4 Norte 15 Norte 0 -- -- 82
2019-04-18 18:00:00 14.2 5 Norte 21 Nordeste 0 -- -- 75
2019-04-18 17:00:00 15.3 4 Este 14 Nordeste 0 -- -- 71
2019-04-18 16:00:00 14.6 5 Este 14 Este 0 -- -- 72
2019-04-18 15:00:00 16.1 2 Nordeste 14 Este 0 -- -- 63
2019-04-18 14:00:00 15.2 3 Este 6 Este 0 -- -- 64
2019-04-18 13:00:00 12.7 2 Nordeste 25 Oeste 0.2 -- -- 82
2019-04-18 12:00:00 13.1 5 Noroeste 22 Oeste 0 -- -- 67
2019-04-18 11:00:00 13.2 10 Sur 45 Sur 0 -- -- 66
2019-04-18 10:00:00 13.4 17 Sudoeste 41 Oeste 0 -- -- 65
2019-04-18 09:00:00 13.4 5 Sur 36 Sur 0 -- -- 58
2019-04-18 08:00:00 13.3 16 Sur 46 Sudeste 0 -- -- 57
2019-04-18 07:00:00 13.1 22 Sur 50 Sur 0 -- -- 58
2019-04-18 06:00:00 13.2 20 Sur 48 Sur 0 -- -- 57
2019-04-18 05:00:00 13.4 27 Sur 57 Sudoeste 0 -- -- 55
2019-04-18 04:00:00 14.4 29 Sudoeste 49 Sudoeste 0 -- -- 53
2019-04-18 03:00:00 14.5 27 Sur 42 Sur 0 -- -- 55
2019-04-18 02:00:00 14.5 16 Sudoeste 36 Sudoeste 0 -- -- 60
2019-04-18 01:00:00 14.9 11 Sur 39 Sudeste 0 -- -- 60
2019-04-18 00:00:00 15.9 8 Este 50 Sudoeste 0 -- -- 60
2019-04-17 23:00:00 16.7 5 Sur 22 Sudeste 0 -- -- 58
2019-04-17 22:00:00 17.5 10 Sur 45 Sudoeste 0 -- -- 56
2019-04-17 21:00:00 17.7 26 Sudoeste 50 Sur 0 -- -- 55
2019-04-17 20:00:00 18.3 25 Sudoeste 50 Sur 0 -- -- 51
2019-04-17 19:00:00 18.4 32 Sur 54 Sudoeste 0 -- -- 51
2019-04-17 18:00:00 18.5 17 Sudoeste 63 Sudoeste 0 -- -- 50
2019-04-17 17:00:00 18.8 36 Sudoeste 60 Sudoeste 0 -- -- 50
2019-04-17 16:00:00 17.4 35 Sur 64 Sudoeste 0 -- -- 55
2019-04-17 15:00:00 16.3 27 Sudoeste 58 Sur 0 -- -- 55
2019-04-17 14:00:00 15.1 19 Sur 69 Sudoeste 0 -- -- 60
2019-04-17 13:00:00 14.3 13 Sur 58 Sudoeste 0 -- -- 59
2019-04-17 12:00:00 13.1 20 Sur 48 Sudeste 0 -- -- 64
2019-04-17 11:00:00 12.2 24 Sur 51 Sur 0 -- -- 66
2019-04-17 10:00:00 12.1 20 Sur 49 Sur 0 -- -- 64
2019-04-17 09:00:00 11.6 21 Sur 55 Sudoeste 0 -- -- 66
2019-04-17 08:00:00 11.3 29 Sur 58 Sur 0 -- -- 65
2019-04-17 07:00:00 11.8 33 Sur 56 Sur 0 -- -- 62
2019-04-17 06:00:00 12 27 Sudoeste 57 Sur 0 -- -- 62
2019-04-17 05:00:00 12.6 20 Sur 44 Sur 0 -- -- 60
2019-04-17 04:00:00 13 21 Sur 63 Sur 0 -- -- 61
2019-04-17 03:00:00 13.5 33 Sur 57 Sudoeste 0 -- -- 61
2019-04-17 02:00:00 13.5 29 Sudoeste 57 Sudoeste 0 -- -- 64
2019-04-17 01:00:00 14.3 30 Sudoeste 51 Sudoeste 0 -- -- 58
2019-04-17 00:00:00 14.8 23 Sudoeste 38 Sudoeste 0 -- -- 52
2019-04-16 23:00:00 14.9 8 Sur 28 Sur 0 -- -- 51
2019-04-16 22:00:00 14.9 8 Sur 19 Sudeste 0 -- -- 51
2019-04-16 21:00:00 15.8 5 Sur 21 Sur 0 -- -- 48
2019-04-16 20:00:00 16.9 3 Sur 26 Sudoeste 0 -- -- 43
2019-04-16 19:00:00 17.6 9 Sur 22 Sur 0 -- -- 38
2019-04-16 18:00:00 18.8 9 Sur 26 Sur 0 -- -- 41
2019-04-16 17:00:00 17.4 2 Este 22 Sudoeste 0 -- -- 58
2019-04-16 16:00:00 18.3 3 Oeste 10 Nordeste 0 -- -- 52
2019-04-16 15:00:00 16.9 4 Noroeste 10 Este 0 -- -- 52
2019-04-16 14:00:00 16.6 5 Sudoeste 10 Este 0 -- -- 54
2019-04-16 13:00:00 14.4 5 Noroeste 15 Este 0 -- -- 62
2019-04-16 12:00:00 13.9 4 Sudeste 10 Sudeste 0 -- -- 66
2019-04-16 11:00:00 11.8 4 Sudoeste 8 Noroeste 0 -- -- 77
2019-04-16 10:00:00 9.9 3 Sur 5 Sur 0 -- -- 93
2019-04-16 09:00:00 6.9 0 Calma 3 Sudoeste 0 -- -- 100
2019-04-16 08:00:00 6.5 2 Noroeste 6 Noroeste 0 -- -- 99
2019-04-16 07:00:00 7.5 0 Calma 6 Noroeste 0 -- -- 98
2019-04-16 06:00:00 8.2 3 Oeste 11 Oeste 0 -- -- 93
2019-04-16 05:00:00 8.8 5 Oeste 12 Oeste 0 -- -- 94
2019-04-16 04:00:00 9 2 Noroeste 8 Noroeste 0 -- -- 100
2019-04-16 03:00:00 9.2 0 Calma 4 Nordeste 0.2 -- -- 100
2019-04-16 02:00:00 9.2 0 Calma 5 Norte 0 -- -- 100
2019-04-16 01:00:00 9.3 0 Calma 5 Este 1 -- -- 100
2019-04-16 00:00:00 9.5 0 Calma 3 Sur 0.6 -- -- 99
2019-04-15 23:00:00 9.5 0 Calma 6 Este 0.8 -- -- 99
2019-04-15 22:00:00 9.6 3 Sudoeste 13 Este 0.8 -- -- 99
2019-04-15 21:00:00 9.8 2 Nordeste 21 Noroeste 4.8 -- -- 96
2019-04-15 20:00:00 11.3 6 Sudoeste 20 Norte 6.4 -- -- 96
2019-04-15 19:00:00 11.8 3 Nordeste 34 Oeste 9 -- -- 93
2019-04-15 18:00:00 20 12 Sur 41 Sur 0 -- -- 51
2019-04-15 17:00:00 20.6 20 Sur 36 Sudeste 0 -- -- 52
2019-04-15 16:00:00 19.2 20 Sur 47 Sudoeste 0 -- -- 54
2019-04-15 15:00:00 19 27 Sudoeste 50 Sudoeste 0 -- -- 58
2019-04-15 14:00:00 18.2 37 Sur 51 Sur 0 -- -- 60
2019-04-15 13:00:00 17.6 19 Sur 49 Sur 0 -- -- 62
2019-04-15 12:00:00 18.1 25 Sur 49 Sudoeste 0 -- -- 58
2019-04-15 11:00:00 16.6 14 Sudeste 53 Sudoeste 0 -- -- 64
2019-04-15 10:00:00 15.8 21 Sur 40 Sur 0 -- -- 68
2019-04-15 09:00:00 15.8 14 Sudoeste 39 Sur 0 -- -- 66
2019-04-15 08:00:00 14.9 15 Oeste 31 Oeste 0 -- -- 69
2019-04-15 07:00:00 13.9 5 Oeste 13 Oeste 0 -- -- 74
2019-04-15 06:00:00 13.8 4 Sudeste 21 Sur 0 -- -- 76
2019-04-15 05:00:00 9.9 2 Sudeste 5 Noroeste 0 -- -- 99
2019-04-15 04:00:00 10.2 0 Calma 5 Sur 0 -- -- 99
2019-04-15 03:00:00 9.3 0 Calma 3 Noroeste 0 -- -- 99
2019-04-15 02:00:00 9.7 0 Calma 2 Este 0 -- -- 99
2019-04-15 01:00:00 10.1 0 Calma 4 Noroeste 0 -- -- 98
2019-04-15 00:00:00 10.1 0 Calma 3 Norte 0 -- -- 97
2019-04-14 23:00:00 10.7 0 Calma 3 Norte 0 -- -- 95
2019-04-14 22:00:00 11.6 0 Calma 3 Sur 0 -- -- 91
2019-04-14 21:00:00 12.9 2 Noroeste 4 Noroeste 0 -- -- 87
2019-04-14 20:00:00 14.1 3 Noroeste 5 Noroeste 0 -- -- 83
2019-04-14 19:00:00 14.4 0 Calma 7 Sudoeste 0 -- -- 81
2019-04-14 18:00:00 14.4 0 Calma 10 Noroeste 0 -- -- 81
2019-04-14 17:00:00 15.9 3 Este 17 Noroeste 0 -- -- 62
2019-04-14 16:00:00 16.9 3 Este 13 Este 0 -- -- 56
2019-04-14 15:00:00 17.3 6 Este 20 Este 0 -- -- 51
2019-04-14 14:00:00 16.5 8 Este 17 Nordeste 0 -- -- 48
2019-04-14 13:00:00 15.8 8 Nordeste 20 Oeste 0 -- -- 47
2019-04-14 12:00:00 15.6 9 Oeste 18 Noroeste 0 -- -- 41
2019-04-14 11:00:00 13.3 0 Calma 2 Sudoeste 0 -- -- 55
2019-04-14 10:00:00 10.9 0 Calma 2 Oeste 0 -- -- 68
2019-04-14 09:00:00 9.9 0 Calma 3 Noroeste 0 -- -- 76
2019-04-14 08:00:00 9.1 0 Calma 2 Oeste 0 -- -- 64
2019-04-14 07:00:00 8.5 0 Calma 0 Calma 0 -- -- 66
2019-04-14 06:00:00 8.3 0 Calma 0 Calma 0 -- -- 63
2019-04-14 05:00:00 7.5 0 Calma -- -- 0 -- -- 62
2019-04-14 04:00:00 7 0 Calma 0 Calma 0 -- -- 59
2019-04-14 03:00:00 7.1 0 Calma 2 Noroeste 0 -- -- 56
2019-04-14 02:00:00 7.8 0 Calma 2 Oeste 0 -- -- 49
2019-04-14 01:00:00 7.3 0 Calma -- -- 0 -- -- 52
2019-04-14 00:00:00 8.2 0 Calma 2 Sudoeste 0 -- -- 50
2019-04-13 23:00:00 9.1 0 Calma 0 Calma 0 -- -- 51
2019-04-13 22:00:00 10.7 0 Calma 2 Sudoeste 0 -- -- 46
2019-04-13 21:00:00 12.9 0 Calma 3 Noroeste 0 -- -- 38
2019-04-13 20:00:00 16.2 3 Noroeste 8 Noroeste 0 -- -- 35
2019-04-13 19:00:00 19.3 2 Noroeste 12 Noroeste 0 -- -- 27
2019-04-13 18:00:00 19.3 5 Norte 17 Nordeste 0 -- -- 23
2019-04-13 17:00:00 19.2 6 Nordeste 18 Nordeste 0 -- -- 26
2019-04-13 16:00:00 19.7 5 Este 14 Nordeste 0 -- -- 20
2019-04-13 15:00:00 19.1 4 Nordeste 12 Nordeste 0 -- -- 25
2019-04-13 14:00:00 18.4 5 Norte 12 Noroeste 0 -- -- 28
2019-04-13 13:00:00 17.8 4 Este 11 Este 0 -- -- 19
2019-04-13 12:00:00 15.7 3 Este 8 Este 0 -- -- 32
2019-04-13 11:00:00 10.5 3 Sudoeste 6 Sur 0 -- -- 71
2019-04-13 10:00:00 5.4 0 Calma 2 Sudoeste 0 -- -- 93
2019-04-13 09:00:00 1.6 0 Calma 0 Calma 0 -- -- 100
2019-04-13 08:00:00 0.9 0 Calma 2 Oeste 0 -- -- 100
2019-04-13 07:00:00 0.9 0 Calma 0 Calma 0 -- -- 100
2019-04-13 06:00:00 1.3 0 Calma 0 Calma 0 -- -- 100
2019-04-13 05:00:00 1.4 0 Calma -- -- 0 -- -- 100
2019-04-13 04:00:00 2 0 Calma 0 Calma 0 -- -- 100
2019-04-13 03:00:00 2.1 0 Calma 0 Calma 0 -- -- 100
2019-04-13 02:00:00 2.4 0 Calma 2 Norte 0 -- -- 99
2019-04-13 01:00:00 3 0 Calma 0 Calma 0 -- -- 98
2019-04-13 00:00:00 3.8 0 Calma 2 Noroeste 0 -- -- 97
2019-04-12 23:00:00 4.6 0 Calma 2 Sur 0 -- -- 94
2019-04-12 22:00:00 6 0 Calma 5 Noroeste 0 -- -- 91
2019-04-12 21:00:00 7.3 0 Calma 6 Oeste 0 -- -- 87
2019-04-12 20:00:00 9 3 Noroeste 14 Noroeste 0 -- -- 78
2019-04-12 19:00:00 10.4 3 Oeste 12 Norte 0 -- -- 72
2019-04-12 18:00:00 12.2 4 Norte 15 Nordeste 0 -- -- 62
2019-04-12 17:00:00 12.9 5 Nordeste 18 Oeste 0 -- -- 67
2019-04-12 16:00:00 12.3 6 Norte 23 Oeste 0 -- -- 65
2019-04-12 15:00:00 11.2 8 Nordeste 22 Oeste 0 -- -- 67
2019-04-12 14:00:00 10.6 4 Sur 24 Nordeste 0 -- -- 73
2019-04-12 13:00:00 10.1 5 Nordeste 19 Este 0 -- -- 75
2019-04-12 12:00:00 9 4 Este 20 Nordeste 0 -- -- 84
2019-04-12 11:00:00 8.4 5 Sudoeste 12 Sur 0 -- -- 92
2019-04-12 10:00:00 7.3 2 Sur 9 Sudeste 0 -- -- 99
2019-04-12 09:00:00 6.8 3 Sur 7 Sudeste 0 -- -- 100
2019-04-12 08:00:00 6.6 4 Sur 13 Nordeste 0 -- -- 100
2019-04-12 07:00:00 6.7 0 Calma 6 Este 0 -- -- 100
2019-04-12 06:00:00 6.7 3 Este 9 Este 0 -- -- 100
2019-04-12 05:00:00 6.8 2 Este 7 Sudoeste 0 -- -- 100
2019-04-12 04:00:00 6.8 2 Sur 6 Sudeste 0 -- -- 100
2019-04-12 03:00:00 6.8 0 Calma 7 Sur 0 -- -- 100
2019-04-12 02:00:00 6.8 5 Sur 10 Sur 0.2 -- -- 100
2019-04-12 01:00:00 6.9 0 Calma 12 Sudoeste 0.8 -- -- 99
2019-04-12 00:00:00 7 4 Sur 13 Sur 0.2 -- -- 100
2019-04-11 23:00:00 6.7 0 Calma 12 Noroeste 1.4 -- -- 99
2019-04-11 22:00:00 7 3 Oeste 10 Sudoeste 0.8 -- -- 93
2019-04-11 21:00:00 7.3 4 Oeste 11 Oeste 0 -- -- 91
2019-04-11 20:00:00 7.8 3 Este 11 Sur 0 -- -- 90
2019-04-11 19:00:00 8.4 4 Sur 13 Este 0 -- -- 90
2019-04-11 18:00:00 8 5 Sur 17 Oeste 0 -- -- 95
2019-04-11 17:00:00 7.7 4 Sur 13 Oeste 3 -- -- 97
2019-04-11 16:00:00 8.6 5 Sur 14 Sudoeste 0.2 -- -- 94
2019-04-11 15:00:00 8.1 4 Sur 14 Oeste 0 -- -- 93
2019-04-11 14:00:00 7.7 5 Sur 18 Noroeste 1 -- -- 96
2019-04-11 13:00:00 7.7 3 Sudoeste 21 Noroeste 1.4 -- -- 95
2019-04-11 12:00:00 6.9 8 Oeste 20 Oeste 1 -- -- 94
2019-04-11 11:00:00 6.5 2 Sudeste 10 Sur 3.4 -- -- 99
2019-04-11 10:00:00 6.5 3 Sudeste 8 Sur 2.6 -- -- 99
2019-04-11 09:00:00 6.6 6 Sudoeste 15 Oeste 0.6 -- -- 95
2019-04-11 08:00:00 6.5 3 Sudoeste 16 Oeste 0.2 -- -- 96
2019-04-11 07:00:00 6.3 2 Noroeste 12 Este 2.4 -- -- 99
2019-04-11 06:00:00 5.9 0 Calma 9 Noroeste 0 -- -- 100
2019-04-11 05:00:00 5.6 0 Calma 16 Oeste 3.6 -- -- 98
2019-04-11 04:00:00 6 0 Calma 21 Oeste 3.2 -- -- 97
2019-04-11 03:00:00 6.5 2 Oeste 15 Sudoeste 1.2 -- -- 98
2019-04-11 02:00:00 6.5 0 Calma 15 Oeste 1.4 -- -- 99
2019-04-11 01:00:00 6.3 4 Sudoeste 9 Sudoeste 1 -- -- 100
2019-04-11 00:00:00 6.1 2 Oeste 13 Oeste 6.4 -- -- 98
2019-04-10 23:00:00 7 2 Este 11 Oeste 3.6 -- -- 96
2019-04-10 22:00:00 7 0 Calma 6 Este 0 -- -- 99
2019-04-10 21:00:00 6.9 3 Este 15 Este 0.4 -- -- 98
2019-04-10 20:00:00 7.6 3 Sur 10 Norte 1.4 -- -- 95
2019-04-10 19:00:00 7.9 4 Sudoeste 14 Oeste 0.8 -- -- 94
2019-04-10 18:00:00 8.7 5 Sur 15 Oeste 0.6 -- -- 89
2019-04-10 17:00:00 10.2 4 Oeste 15 Oeste 0 -- -- 79
2019-04-10 16:00:00 10.2 4 Noroeste 18 Noroeste 0 -- -- 81
2019-04-10 15:00:00 10.1 4 Noroeste 14 Noroeste 0 -- -- 83
2019-04-10 14:00:00 8.8 4 Sudoeste 15 Oeste 0 -- -- 86
2019-04-10 13:00:00 8.8 3 Sudeste 10 Sur 0 -- -- 87
2019-04-10 12:00:00 6.2 2 Oeste 13 Este 6 -- -- 97
2019-04-10 11:00:00 6.9 0 Calma 6 Este 1.4 -- -- 100
2019-04-10 10:00:00 6.4 0 Calma 5 Sur 1 -- -- 100
2019-04-10 09:00:00 5.8 0 Calma 2 Noroeste 0 -- -- 100
2019-04-10 08:00:00 4.9 0 Calma 2 Noroeste 0 -- -- 100
2019-04-10 07:00:00 4.6 0 Calma 2 Noroeste 0 -- -- 100
2019-04-10 06:00:00 4.6 0 Calma 2 Noroeste 0 -- -- 100
2019-04-10 05:00:00 4.9 0 Calma 2 Noroeste 0 -- -- 100
2019-04-10 04:00:00 5.3 0 Calma 2 Este 0 -- -- 100
2019-04-10 03:00:00 5.6 0 Calma 3 Oeste 0 -- -- 100
2019-04-10 02:00:00 5.8 0 Calma 4 Noroeste 0 -- -- 100
2019-04-10 01:00:00 5.9 0 Calma 2 Noroeste 0 -- -- 99
2019-04-10 00:00:00 6.2 0 Calma 2 Norte 0 -- -- 99
2019-04-09 23:00:00 6.5 0 Calma 3 Sudeste 0.2 -- -- 97
2019-04-09 22:00:00 6.7 0 Calma 9 Oeste 0.8 -- -- 95
2019-04-09 21:00:00 7 0 Calma 8 Noroeste 3.2 -- -- 92
2019-04-09 20:00:00 7.7 0 Calma 13 Noroeste 0.4 -- -- 89
2019-04-09 19:00:00 8.5 3 Sur 15 Oeste 0.4 -- -- 86
2019-04-09 18:00:00 11.2 6 Oeste 21 Este 0 -- -- 66
2019-04-09 17:00:00 13.9 6 Nordeste 22 Noroeste 0 -- -- 57
2019-04-09 16:00:00 15 11 Oeste 27 Oeste 0 -- -- 48
2019-04-09 15:00:00 14.3 11 Oeste 27 Sudoeste 0 -- -- 47
2019-04-09 14:00:00 13.4 7 Noroeste 22 Oeste 0 -- -- 52
2019-04-09 13:00:00 13.3 8 Sudoeste 29 Oeste 0 -- -- 54
2019-04-09 12:00:00 12.2 9 Noroeste 26 Oeste 0 -- -- 54
2019-04-09 11:00:00 11.3 11 Oeste 26 Oeste 0 -- -- 58
2019-04-09 10:00:00 9.1 0 Calma 6 Sudoeste 0 -- -- 72
2019-04-09 09:00:00 4.5 0 Calma 3 Sudoeste 0 -- -- 97
2019-04-09 08:00:00 3.5 0 Calma 3 Oeste 0 -- -- 94
2019-04-09 07:00:00 3.7 0 Calma 4 Oeste 0 -- -- 95
2019-04-09 06:00:00 3.8 0 Calma 4 Oeste 0 -- -- 97
2019-04-09 05:00:00 4 0 Calma 4 Oeste 0 -- -- 97
2019-04-09 04:00:00 3.5 0 Calma 2 Sudoeste 0 -- -- 99
2019-04-09 03:00:00 3.6 0 Calma 2 Oeste 0 -- -- 98
2019-04-09 02:00:00 4 0 Calma 3 Norte 0 -- -- 98
2019-04-09 01:00:00 4.5 0 Calma 3 Oeste 0 -- -- 96
2019-04-09 00:00:00 4.4 0 Calma 3 Norte 0 -- -- 97
2019-04-08 23:00:00 5.2 0 Calma 4 Sudoeste 0 -- -- 94
2019-04-08 22:00:00 6 0 Calma 3 Oeste 0 -- -- 93
2019-04-08 21:00:00 7.3 0 Calma 4 Nordeste 0 -- -- 86
2019-04-08 20:00:00 9.5 3 Norte 9 Este 0 -- -- 74
2019-04-08 19:00:00 10.3 3 Nordeste 9 Nordeste 0 -- -- 72
2019-04-08 18:00:00 10.2 2 Norte 9 Sudeste 0 -- -- 75
2019-04-08 17:00:00 10.8 4 Nordeste 10 Este 0.2 -- -- 83
2019-04-08 16:00:00 10 0 Calma 14 Noroeste 0.2 -- -- 87
2019-04-08 15:00:00 9.5 2 Sudeste 12 Oeste 1 -- -- 94
2019-04-08 14:00:00 8.9 4 Sudeste 15 Noroeste 1.8 -- -- 95
2019-04-08 13:00:00 8.7 0 Calma 9 Sudoeste 0.4 -- -- 95
2019-04-08 12:00:00 8.2 0 Calma 6 Noroeste 0.8 -- -- 95
2019-04-08 11:00:00 7.8 0 Calma 14 Oeste 0.6 -- -- 93
2019-04-08 10:00:00 7.7 6 Oeste 18 Oeste 0.2 -- -- 89
2019-04-08 09:00:00 7.8 13 Sudoeste 30 Sudoeste 0.2 -- -- 86
2019-04-08 08:00:00 8.5 13 Sudoeste 24 Sudoeste 0 -- -- 80
2019-04-08 07:00:00 8.4 10 Sudoeste 31 Sudoeste 0 -- -- 79
2019-04-08 06:00:00 8.9 12 Sudoeste 26 Sudoeste 0 -- -- 73
2019-04-08 05:00:00 9.9 12 Sudoeste 34 Sudoeste 0 -- -- 64
2019-04-08 04:00:00 9.9 17 Sur 32 Sur 0 -- -- 60
2019-04-08 03:00:00 9.7 16 Sur 37 Sudoeste 0 -- -- 61
2019-04-08 02:00:00 9 8 Sur 17 Sudeste 0 -- -- 65
2019-04-08 01:00:00 8.7 3 Oeste 13 Sur 0 -- -- 65
2019-04-08 00:00:00 9.4 7 Sudoeste 18 Oeste 0 -- -- 65
2019-04-07 23:00:00 9.5 5 Oeste 13 Noroeste 0 -- -- 62
2019-04-07 22:00:00 8.2 4 Oeste 15 Oeste 0 -- -- 71
2019-04-07 21:00:00 8.6 0 Calma 7 Este 0 -- -- 76
2019-04-07 20:00:00 10.6 3 Este 7 Sudeste 0 -- -- 67
2019-04-07 19:00:00 12.5 2 Noroeste 8 Este 0 -- -- 53
2019-04-07 18:00:00 11.8 4 Nordeste 12 Nordeste 0 -- -- 61
2019-04-07 17:00:00 10.8 3 Nordeste 10 Nordeste 0 -- -- 68
2019-04-07 16:00:00 9.7 2 Este 11 Nordeste 0 -- -- 77
2019-04-07 15:00:00 8.5 0 Calma 10 Este 0 -- -- 81
2019-04-07 14:00:00 8.5 3 Este 14 Nordeste 0 -- -- 85
2019-04-07 13:00:00 8 4 Este 12 Sur 0 -- -- 86
2019-04-07 12:00:00 6.9 3 Norte 21 Sur 0.2 -- -- 86
2019-04-07 11:00:00 6 6 Sur 21 Sudoeste 0 -- -- 86
2019-04-07 10:00:00 5.7 9 Sudoeste 20 Noroeste 0 -- -- 85
2019-04-07 09:00:00 5.3 8 Sudoeste 19 Sudoeste 0 -- -- 88
2019-04-07 08:00:00 4.7 6 Sudoeste 17 Sudoeste 0 -- -- 96
2019-04-07 07:00:00 4.1 0 Calma 4 Noroeste 0 -- -- 99
2019-04-07 06:00:00 4.1 0 Calma 2 Noroeste 0 -- -- 99
2019-04-07 05:00:00 4.7 0 Calma 3 Noroeste 0 -- -- 99
2019-04-07 04:00:00 5 0 Calma 2 Este 0.2 -- -- 98
2019-04-07 03:00:00 5 0 Calma 4 Sudeste 0 -- -- 99
2019-04-07 02:00:00 4.7 0 Calma 2 Oeste 0 -- -- 98
2019-04-07 01:00:00 4.5 0 Calma 3 Oeste 0 -- -- 97
2019-04-07 00:00:00 5 0 Calma 4 Noroeste 0.6 -- -- 94
2019-04-06 23:00:00 5.7 4 Norte 20 Oeste 0 -- -- 87
2019-04-06 22:00:00 8.1 9 Oeste 16 Noroeste 0 -- -- 72
2019-04-06 21:00:00 8 3 Oeste 17 Sur 0 -- -- 67
2019-04-06 20:00:00 9.9 10 Sudoeste 32 Sudoeste 0 -- -- 59
2019-04-06 19:00:00 11.1 13 Sur 23 Sur 0 -- -- 50
2019-04-06 18:00:00 11.1 9 Sudoeste 26 Sudoeste 0 -- -- 46
2019-04-06 17:00:00 11.3 7 Oeste 28 Sudoeste 0 -- -- 50
2019-04-06 16:00:00 10.9 10 Oeste 29 Noroeste 0 -- -- 46
2019-04-06 15:00:00 10.8 13 Oeste 33 Oeste 0 -- -- 50
2019-04-06 14:00:00 10.6 21 Oeste 40 Oeste 0 -- -- 51
2019-04-06 13:00:00 9.5 19 Oeste 38 Oeste 0.2 -- -- 56
2019-04-06 12:00:00 9.3 10 Sudoeste 26 Oeste 0 -- -- 59
2019-04-06 11:00:00 8.1 12 Sur 21 Sudoeste 0 -- -- 67
2019-04-06 10:00:00 4.8 0 Calma 4 Sudoeste 0 -- -- 100
2019-04-06 09:00:00 3.4 0 Calma 3 Noroeste 0 -- -- 100
2019-04-06 08:00:00 3.3 0 Calma 4 Noroeste 0 -- -- 100
2019-04-06 07:00:00 4 0 Calma 2 Este 0 -- -- 100
2019-04-06 06:00:00 3.8 0 Calma 10 Nordeste 0 -- -- 100
2019-04-06 05:00:00 3.9 3 Nordeste 8 Este 4.4 -- -- 100
2019-04-06 04:00:00 4.1 0 Calma 4 Norte 2.4 -- -- 100
2019-04-06 03:00:00 4.1 0 Calma 2 Noroeste 0 -- -- 100
2019-04-06 02:00:00 4.2 0 Calma 2 Norte 0 -- -- 100
2019-04-06 01:00:00 4.1 0 Calma 3 Oeste 0 -- -- 100
2019-04-06 00:00:00 4.3 0 Calma 2 Noroeste 0 -- -- 99
2019-04-05 23:00:00 4.6 0 Calma 2 Sudoeste 0.2 -- -- 99
2019-04-05 22:00:00 4.7 0 Calma 5 Noroeste 0 -- -- 98
2019-04-05 21:00:00 4.9 0 Calma 10 Oeste 0.4 -- -- 97
2019-04-05 20:00:00 5 0 Calma 4 Sur 1 -- -- 97
2019-04-05 19:00:00 5 0 Calma 8 Nordeste 0 -- -- 96
2019-04-05 18:00:00 5.2 4 Sur 33 Noroeste 2 -- -- 92
2019-04-05 17:00:00 7.4 18 Noroeste 39 Oeste 0.2 -- -- 77
2019-04-05 16:00:00 10 19 Sur 35 Sur 0 -- -- 65
2019-04-05 15:00:00 10 13 Sur 45 Sudoeste 0 -- -- 65
2019-04-05 14:00:00 9.4 23 Sudoeste 38 Sudoeste 0 -- -- 69
2019-04-05 13:00:00 8.7 15 Sur 41 Sudoeste 0 -- -- 69
2019-04-05 12:00:00 8.4 25 Sudoeste 48 Sudoeste 0 -- -- 71
2019-04-05 11:00:00 7.9 20 Sur 48 Sur 0 -- -- 71
2019-04-05 10:00:00 7.3 20 Sur 42 Sur 0 -- -- 72
2019-04-05 09:00:00 7.8 12 Sur 34 Sur 0 -- -- 63
2019-04-05 08:00:00 8.1 12 Sur 34 Sudeste 0 -- -- 57
2019-04-05 07:00:00 8.7 14 Sudoeste 38 Oeste 0 -- -- 54
2019-04-05 06:00:00 9.1 13 Sur 36 Sur 0 -- -- 49
2019-04-05 05:00:00 8.5 12 Sur 28 Sur 0 -- -- 44
2019-04-05 04:00:00 8.9 12 Sudoeste 30 Sudoeste 0 -- -- 42
2019-04-05 03:00:00 9.2 19 Sudoeste 43 Oeste 0 -- -- 42
2019-04-05 02:00:00 9.1 16 Sudoeste 45 Sudoeste 0 -- -- 49
2019-04-05 01:00:00 9.4 9 Sudoeste 23 Noroeste 0 -- -- 47
2019-04-05 00:00:00 9.5 7 Sudoeste 16 Oeste 0 -- -- 45
2019-04-04 23:00:00 9.1 3 Sudoeste 17 Sur 0 -- -- 50
2019-04-04 22:00:00 9.6 9 Sur 23 Sudeste 0 -- -- 47
2019-04-04 21:00:00 9.8 3 Sudoeste 17 Sur 0 -- -- 47
2019-04-04 20:00:00 10.5 9 Sur 23 Sudoeste 0 -- -- 44
2019-04-04 19:00:00 11.6 18 Sudoeste 29 Sudoeste 0 -- -- 37
2019-04-04 18:00:00 11.2 12 Sudoeste 22 Sudoeste 0 -- -- 37
2019-04-04 17:00:00 12.1 11 Sudoeste 22 Sudoeste 0 -- -- 41
2019-04-04 16:00:00 11.1 12 Sudoeste 28 Sudoeste 0 -- -- 44
2019-04-04 15:00:00 10.2 13 Sudoeste 27 Sur 0 -- -- 48
2019-04-04 14:00:00 7.7 8 Sur 16 Oeste 0 -- -- 65
2019-04-04 13:00:00 6.3 9 Oeste 18 Oeste 0 -- -- 69
2019-04-04 12:00:00 5.2 3 Sur 21 Sudoeste 0 -- -- 78
2019-04-04 11:00:00 4.7 9 Sudoeste 24 Sur 1.8 -- -- 82
2019-04-04 10:00:00 3.5 5 Oeste 14 Sudoeste 0.8 -- -- 81
2019-04-04 09:00:00 2 5 Oeste 19 Sudoeste 0.4 -- -- 91
2019-04-04 08:00:00 1.5 10 Sudoeste 21 Sur 0.4 -- -- 94
2019-04-04 07:00:00 0.9 0 Calma 8 Oeste 0.4 -- -- 97
2019-04-04 06:00:00 1.5 6 Oeste 22 Sudoeste 0.8 -- -- 93
2019-04-04 05:00:00 1.7 5 Oeste 22 Oeste 0.8 -- -- 91
2019-04-04 04:00:00 1.4 4 Sudoeste 15 Sudoeste 0.6 -- -- 94
2019-04-04 03:00:00 1.2 4 Sudoeste 15 Sur 0.2 -- -- 96
2019-04-04 02:00:00 1.2 8 Sudoeste 18 Sudoeste 0.2 -- -- 96
2019-04-04 01:00:00 0.9 3 Sur 10 Sudoeste 0 -- -- 98
2019-04-04 00:00:00 0.6 0 Calma 15 Sur 0 -- -- 97
2019-04-03 23:00:00 1.7 5 Sudoeste 27 Sur 0.2 -- -- 89
2019-04-03 22:00:00 2.1 5 Noroeste 30 Sudoeste 0.8 -- -- 89
2019-04-03 21:00:00 3 10 Sudoeste 23 Oeste 0.4 -- -- 82
2019-04-03 20:00:00 4.1 5 Oeste 17 Noroeste 0 -- -- 79
2019-04-03 19:00:00 4.4 4 Este 20 Norte 0.4 -- -- 79
2019-04-03 18:00:00 4.8 6 Norte 18 Norte 0 -- -- 80
2019-04-03 17:00:00 5.9 4 Noroeste 29 Norte 0.8 -- -- 80
2019-04-03 16:00:00 4.3 5 Norte 24 Norte 1.4 -- -- 88
2019-04-03 15:00:00 5.2 9 Norte 30 Noroeste 1 -- -- 85
2019-04-03 14:00:00 7.2 5 Sudoeste 35 Sudoeste 0 -- -- 74
2019-04-03 13:00:00 5.1 7 Oeste 23 Norte 0.6 -- -- 87
2019-04-03 12:00:00 5.4 3 Sur 16 Sur 0 -- -- 88
2019-04-03 11:00:00 5.5 5 Oeste 19 Sudoeste 0 -- -- 81
2019-04-03 10:00:00 4.3 3 Nordeste 21 Nordeste 2.4 -- -- 94
2019-04-03 09:00:00 4.7 3 Norte 27 Noroeste 0.6 -- -- 92
2019-04-03 08:00:00 5.1 3 Este 15 Norte 0.4 -- -- 96
2019-04-03 07:00:00 5.4 5 Norte 19 Oeste 0.4 -- -- 96
2019-04-03 06:00:00 5.5 3 Oeste 10 Noroeste 0 -- -- 95
2019-04-03 05:00:00 5.4 3 Sudoeste 6 Oeste 0 -- -- 99
2019-04-03 04:00:00 5.4 0 Calma 12 Norte 1.4 -- -- 100
2019-04-03 03:00:00 5.9 4 Sudeste 13 Nordeste 0.8 -- -- 100
2019-04-03 02:00:00 6.2 0 Calma 9 Este 1 -- -- 99
2019-04-03 01:00:00 6.6 3 Este 9 Nordeste 1.2 -- -- 98
2019-04-03 00:00:00 7.2 0 Calma 7 Este 1 -- -- 98
2019-04-02 23:00:00 7.7 3 Sudeste 12 Este 1.2 -- -- 97
2019-04-02 22:00:00 8.2 2 Este 10 Este 0.4 -- -- 94
2019-04-02 21:00:00 8.7 3 Sudoeste 14 Este 0 -- -- 88
2019-04-02 20:00:00 9.1 3 Este 12 Nordeste 0 -- -- 84
2019-04-02 19:00:00 9.5 3 Sudeste 15 Este 0 -- -- 80
2019-04-02 18:00:00 9.6 7 Este 18 Nordeste 0 -- -- 83
2019-04-02 17:00:00 10.7 4 Sur 19 Nordeste 0 -- -- 79
2019-04-02 16:00:00 12.1 5 Noroeste 18 Nordeste 0 -- -- 73
2019-04-02 15:00:00 12.6 5 Noroeste 15 Oeste 0 -- -- 71
2019-04-02 14:00:00 13.4 6 Este 19 Nordeste 0 -- -- 61
2019-04-02 13:00:00 12.5 9 Este 16 Este 0 -- -- 66
2019-04-02 12:00:00 11.1 6 Este 15 Este 0 -- -- 78
2019-04-02 11:00:00 11.1 8 Este 19 Nordeste 0 -- -- 77
2019-04-02 10:00:00 10.9 3 Sur 6 Sur 0 -- -- 93
2019-04-02 09:00:00 8.4 0 Calma 3 Noroeste 0 -- -- 99
2019-04-02 08:00:00 8.3 0 Calma 2 Sudoeste 0 -- -- 99
2019-04-02 07:00:00 8.3 0 Calma 2 Norte 0 -- -- 98
2019-04-02 06:00:00 8.7 0 Calma 3 Oeste 0 -- -- 98
2019-04-02 05:00:00 8.7 0 Calma 2 Noroeste 0 -- -- 98
2019-04-02 04:00:00 8.8 0 Calma 4 Norte 0 -- -- 96
2019-04-02 03:00:00 9.2 0 Calma 3 Norte 0 -- -- 96
2019-04-02 02:00:00 9.2 0 Calma 2 Sur 0 -- -- 95
2019-04-02 01:00:00 9.2 0 Calma 4 Oeste 0 -- -- 94
2019-04-02 00:00:00 9.3 0 Calma 2 Norte 0 -- -- 93
2019-04-01 23:00:00 9.5 0 Calma 2 Este 0 -- -- 92
2019-04-01 22:00:00 10.1 0 Calma 6 Nordeste 0 -- -- 90
2019-04-01 21:00:00 11.7 0 Calma 5 Este 0 -- -- 80
2019-04-01 20:00:00 13.1 0 Calma 6 Sur 0 -- -- 73
2019-04-01 19:00:00 13.5 0 Calma 12 Sudoeste 0 -- -- 63
2019-04-01 18:00:00 13.6 5 Sudoeste 13 Sudoeste 0 -- -- 63
2019-04-01 17:00:00 13.8 9 Sur 24 Sudoeste 0 -- -- 66
2019-04-01 16:00:00 13.1 14 Sur 28 Sudoeste 0 -- -- 67
2019-04-01 15:00:00 12.9 13 Sur 30 Sudoeste 0 -- -- 73
2019-04-01 14:00:00 11.9 13 Sur 28 Sudoeste 0 -- -- 73
2019-04-01 13:00:00 12.4 8 Sur 21 Sudeste 0 -- -- 72
2019-04-01 12:00:00 10.9 10 Sudoeste 24 Sudoeste 0 -- -- 77
2019-04-01 11:00:00 10.2 6 Sudoeste 19 Sudoeste 0 -- -- 80
2019-04-01 10:00:00 9.3 9 Sur 18 Sudoeste 0 -- -- 82
2019-04-01 09:00:00 8.5 5 Sudoeste 14 Sudoeste 0.2 -- -- 85
2019-04-01 08:00:00 8.3 5 Sudoeste 14 Sur 0 -- -- 85
2019-04-01 07:00:00 8.4 4 Sudoeste 12 Sur 0.2 -- -- 85
2019-04-01 06:00:00 8.1 0 Calma 8 Oeste 0.2 -- -- 87
2019-04-01 05:00:00 7.7 3 Oeste 6 Oeste 0 -- -- 92
2019-04-01 04:00:00 7.8 0 Calma 6 Noroeste 0.4 -- -- 92
2019-04-01 03:00:00 8.4 0 Calma 11 Oeste 0.4 -- -- 86
2019-04-01 02:00:00 9 5 Oeste 15 Sur 0.4 -- -- 76
2019-04-01 01:00:00 10.2 9 Sudoeste 28 Sudoeste 0 -- -- 65
2019-04-01 00:00:00 11.5 5 Sudoeste 19 Sudoeste 0 -- -- 51
2019-03-31 23:00:00 12 6 Sudoeste 20 Sudoeste 0 -- -- 48
2019-03-31 22:00:00 12.4 4 Sudoeste 13 Sudoeste 0 -- -- 54
2019-03-31 21:00:00 12.6 3 Oeste 6 Noroeste 0 -- -- 55
2019-03-31 20:00:00 14.1 0 Calma 12 Norte 0 -- -- 49
2019-03-31 19:00:00 15.5 8 Norte 20 Norte 0 -- -- 45
2019-03-31 18:00:00 16.6 5 Noroeste 16 Noroeste 0 -- -- 42
2019-03-31 17:00:00 16.8 3 Este 12 Norte 0 -- -- 45
2019-03-31 16:00:00 16.7 3 Noroeste 10 Este 0 -- -- 44
2019-03-31 15:00:00 17.2 5 Nordeste 18 Sur 0 -- -- 38
2019-03-31 14:00:00 17.4 9 Sudoeste 19 Sur 0 -- -- 42
2019-03-31 13:00:00 16.3 7 Sudoeste 17 Sudoeste 0 -- -- 47
2019-03-31 12:00:00 15 11 Sudoeste 20 Sur 0 -- -- 46
2019-03-31 11:00:00 13.6 10 Sudoeste 19 Sur 0 -- -- 51
2019-03-31 10:00:00 11.7 6 Oeste 21 Oeste 0 -- -- 58
2019-03-31 09:00:00 10.1 4 Oeste 20 Oeste 0 -- -- 64
2019-03-31 08:00:00 9.8 4 Oeste 21 Oeste 0 -- -- 66
2019-03-31 07:00:00 10.1 7 Oeste 21 Oeste 0 -- -- 65
2019-03-31 06:00:00 10.4 10 Oeste 22 Oeste 0 -- -- 61
2019-03-31 05:00:00 10.9 9 Oeste 31 Sudoeste 0 -- -- 56
2019-03-31 03:00:00 11.1 6 Sudoeste 22 Sur 0 -- -- 48
2019-03-31 01:00:00 11.1 4 Noroeste 22 Sur 0 -- -- 49
2019-03-31 00:00:00 11.6 10 Sur 22 Sur 0 -- -- 50
2019-03-30 23:00:00 10.2 2 Oeste 5 Norte 0 -- -- 55
2019-03-30 22:00:00 10.2 0 Calma 4 Norte 0 -- -- 54
2019-03-30 21:00:00 11.6 0 Calma 6 Oeste 0 -- -- 50
2019-03-30 20:00:00 14 3 Oeste 18 Sur 0 -- -- 42
2019-03-30 19:00:00 15.7 7 Sur 20 Sudoeste 0 -- -- 38
2019-03-30 18:00:00 17.4 10 Sudoeste 25 Sudoeste 0 -- -- 36
2019-03-30 17:00:00 18 11 Sudoeste 22 Sudoeste 0 -- -- 35
2019-03-30 16:00:00 17.9 12 Sur 33 Sudoeste 0 -- -- 37
2019-03-30 15:00:00 17.7 10 Sur 28 Sur 0 -- -- 38
2019-03-30 14:00:00 16.4 17 Sudoeste 33 Sudoeste 0 -- -- 41
2019-03-30 13:00:00 15.3 17 Sur 45 Sudoeste 0 -- -- 47
2019-03-30 12:00:00 14 21 Sudoeste 42 Sur 0 -- -- 47
2019-03-30 11:00:00 12.5 27 Sudoeste 47 Sur 0 -- -- 43
2019-03-30 10:00:00 11.4 26 Sudoeste 49 Sur 0 -- -- 45
2019-03-30 09:00:00 10.1 26 Sudoeste 50 Sur 0 -- -- 48
2019-03-30 08:00:00 9.4 25 Sudoeste 49 Sur 0 -- -- 48
2019-03-30 07:00:00 9.3 22 Sur 52 Sudoeste 0 -- -- 47
2019-03-30 06:00:00 9.6 22 Sur 48 Sur 0 -- -- 47
2019-03-30 05:00:00 9.7 19 Sur 39 Sur 0 -- -- 50
2019-03-30 04:00:00 10 20 Sur 39 Sur 0 -- -- 51
2019-03-30 03:00:00 10.5 17 Sur 38 Sudoeste 0 -- -- 50
2019-03-30 02:00:00 11.3 15 Sur 44 Sudoeste 0 -- -- 48
2019-03-30 01:00:00 11.9 18 Sudoeste 45 Sudoeste 0 -- -- 47
2019-03-30 00:00:00 12.2 15 Sudoeste 33 Sudoeste 0 -- -- 48
2019-03-29 23:00:00 12.7 12 Sudoeste 30 Sur 0 -- -- 44
2019-03-29 22:00:00 13 8 Sudoeste 22 Sudoeste 0 -- -- 41
2019-03-29 21:00:00 14 12 Sudoeste 23 Sudoeste 0 -- -- 37
2019-03-29 20:00:00 14.7 9 Sudoeste 22 Sudoeste 0 -- -- 37
2019-03-29 19:00:00 15.8 8 Sur 29 Sudoeste 0 -- -- 33
2019-03-29 18:00:00 17.3 15 Sur 38 Sur 0 -- -- 33
2019-03-29 17:00:00 17.8 20 Sur 37 Sudoeste 0 -- -- 30
2019-03-29 16:00:00 18 14 Sur 37 Sudoeste 0 -- -- 32
2019-03-29 15:00:00 17.8 14 Sur 39 Sudoeste 0 -- -- 36
2019-03-29 14:00:00 16.9 15 Sudoeste 46 Sudoeste 0 -- -- 35
2019-03-29 13:00:00 15.6 19 Sur 49 Sudoeste 0 -- -- 38
2019-03-29 12:00:00 14.4 15 Sur 58 Sudoeste 0 -- -- 43
2019-03-29 11:00:00 12.6 28 Sudoeste 55 Sur 0 -- -- 43
2019-03-29 10:00:00 11.3 20 Sur 48 Sudoeste 0 -- -- 45
2019-03-29 09:00:00 9.8 18 Sur 40 Sudoeste 0 -- -- 50
2019-03-29 08:00:00 8.7 21 Sur 40 Sudoeste 0 -- -- 55
2019-03-29 07:00:00 8.4 23 Sudoeste 37 Sudoeste 0 -- -- 58
2019-03-29 06:00:00 7.5 17 Sudoeste 32 Sudoeste 0 -- -- 67
2019-03-29 05:00:00 2.3 0 Calma 4 Norte 0 -- -- 93
2019-03-29 04:00:00 2.1 0 Calma 0 Calma 0 -- -- 93
2019-03-29 03:00:00 2 0 Calma 0 Calma 0 -- -- 94
2019-03-29 02:00:00 2.1 0 Calma 2 Oeste 0 -- -- 95
2019-03-29 01:00:00 2.4 0 Calma 3 Norte 0 -- -- 95
2019-03-29 00:00:00 3 0 Calma 2 Sur 0 -- -- 94
2019-03-28 23:00:00 3.8 0 Calma 2 Norte 0 -- -- 92
2019-03-28 22:00:00 4.7 0 Calma 3 Sudoeste 0 -- -- 87
2019-03-28 21:00:00 5.9 0 Calma 5 Nordeste 0 -- -- 84
2019-03-28 20:00:00 7.4 0 Calma 13 Noroeste 0 -- -- 80
2019-03-28 19:00:00 8.8 5 Norte 17 Oeste 0 -- -- 70
2019-03-28 18:00:00 11.9 5 Noroeste 18 Noroeste 0 -- -- 58
2019-03-28 17:00:00 13 5 Norte 19 Nordeste 0 -- -- 54
2019-03-28 16:00:00 13.4 9 Noroeste 21 Noroeste 0 -- -- 57
2019-03-28 15:00:00 13.4 6 Noroeste 22 Norte 0 -- -- 56
2019-03-28 14:00:00 13.1 10 Noroeste 22 Noroeste 0 -- -- 58
2019-03-28 13:00:00 13 6 Noroeste 22 Noroeste 0 -- -- 60
2019-03-28 12:00:00 12.5 6 Norte 23 Noroeste 0 -- -- 63
2019-03-28 11:00:00 11.4 4 Sudeste 17 Noroeste 0 -- -- 70
2019-03-28 10:00:00 9.5 4 Noroeste 10 Noroeste 0 -- -- 77
2019-03-28 09:00:00 6.8 2 Sudeste 4 Sudeste 0 -- -- 96
2019-03-28 08:00:00 5.3 0 Calma 2 Sudoeste 0 -- -- 98
2019-03-28 07:00:00 5 0 Calma 2 Nordeste 0 -- -- 98
2019-03-28 06:00:00 4.7 0 Calma 2 Sudoeste 0 -- -- 98
2019-03-28 05:00:00 4.9 0 Calma 3 Noroeste 0 -- -- 97
2019-03-28 04:00:00 5.1 0 Calma 8 Noroeste 0 -- -- 94
2019-03-28 03:00:00 6.1 0 Calma 4 Noroeste 0 -- -- 94
2019-03-28 02:00:00 5.6 0 Calma 3 Noroeste 0 -- -- 94
2019-03-28 01:00:00 5.7 0 Calma 4 Nordeste 0 -- -- 92
2019-03-28 00:00:00 6.2 0 Calma 5 Este 0 -- -- 90
2019-03-27 23:00:00 6.3 0 Calma 4 Sudeste 0 -- -- 90
2019-03-27 22:00:00 6.3 0 Calma 6 Sur 0 -- -- 88
2019-03-27 21:00:00 6 0 Calma 8 Sudoeste 0 -- -- 86
2019-03-27 20:00:00 6 2 Sudoeste 9 Oeste 0 -- -- 82
2019-03-27 19:00:00 7.3 4 Sur 15 Noroeste 0 -- -- 73
2019-03-27 18:00:00 9.6 3 Oeste 22 Oeste 0 -- -- 63
2019-03-27 17:00:00 10.9 7 Sur 21 Sur 0 -- -- 56
2019-03-27 16:00:00 12.2 7 Sudoeste 19 Oeste 0 -- -- 47
2019-03-27 15:00:00 13 6 Norte 23 Noroeste 0 -- -- 45
2019-03-27 14:00:00 12.9 8 Oeste 23 Oeste 0 -- -- 47
2019-03-27 13:00:00 12.1 7 Oeste 19 Oeste 0 -- -- 45
2019-03-27 12:00:00 12.5 6 Nordeste 21 Nordeste 0 -- -- 45
2019-03-27 11:00:00 10.7 8 Nordeste 22 Nordeste 0 -- -- 47
2019-03-27 10:00:00 8.7 4 Sudeste 11 Nordeste 0 -- -- 73
2019-03-27 09:00:00 2.6 0 Calma 4 Este 0 -- -- 91
2019-03-27 08:00:00 0.2 0 Calma 2 Nordeste 0 -- -- 95
2019-03-27 07:00:00 0.2 0 Calma 2 Sudoeste 0 -- -- 94
2019-03-27 06:00:00 0.5 0 Calma 2 Oeste 0 -- -- 94
2019-03-27 05:00:00 1 0 Calma 0 Calma 0 -- -- 92
2019-03-27 04:00:00 2.2 0 Calma 4 Noroeste 0 -- -- 90
2019-03-27 03:00:00 1.7 0 Calma 3 Noroeste 0 -- -- 96
2019-03-27 02:00:00 2.5 0 Calma 3 Noroeste 0 -- -- 94
2019-03-27 01:00:00 3.5 0 Calma 3 Oeste 0 -- -- 94
2019-03-27 00:00:00 4.1 2 Noroeste 7 Oeste 0 -- -- 94